Time;durP1;ratioP1;P1;durP2;ratioP2;P2;SDS_P1;SDS_P2;PMS_P1;PMS_P2;Temp;Humidity;BMP_temperature;BMP_pressure;BME280_temperature;BME280_humidity;BME280_pressure;Samples;Min_cycle;Max_cycle;Signal;HPM_P1;HPM_P2
2022/04/25 00:01:08;;;;;;;10.80;7.00;;;;;;;8.40;75.77;97698.52;102430;1317;23047;-82
2022/04/25 00:04:23;;;;;;;;;;;;;;;;;;;;;
2022/04/25 00:08:05;;;;;;;12.50;8.40;;;;;;;8.42;75.61;97701.26;101613;1320;22734;-87
2022/04/25 00:11:01;;;;;;;;;;;;;;;;;;;;;
2022/04/25 00:15:02;;;;;;;11.80;7.60;;;;;;;8.43;75.67;97701.48;102282;1318;23135;-85
2022/04/25 00:18:17;;;;;;;14.20;8.80;;;;;;;8.36;75.67;97700.93;102897;1311;24626;-84
2022/04/25 00:21:32;;;;;;;;;;;;;;;;;;;;;
2022/04/25 00:25:08;;;;;;;;;;;;;;;;;;;;;
2022/04/25 00:28:29;;;;;;;;;;;;;;;;;;;;;
2022/04/25 00:32:54;;;;;;;15.00;9.00;;;;;;;8.34;75.66;97712.67;103119;1307;23964;-84
2022/04/25 00:36:10;;;;;;;15.60;10.30;;;;;;;8.30;76.09;97709.93;103042;1305;22595;-85
2022/04/25 00:39:09;;;;;;;;;;;;;;;;;;;;;
2022/04/25 00:42:50;;;;;;;;;;;;;;;;;;;;;
2022/04/25 00:46:20;;;;;;;13.80;9.10;;;;;;;8.14;75.94;97713.98;103577;1299;24301;-86
2022/04/25 00:49:51;;;;;;;;;;;;;;;;;;;;;
2022/04/25 00:53:42;;;;;;;;;;;;;;;;;;;;;
2022/04/25 00:57:43;;;;;;;12.10;7.30;;;;;;;8.02;76.18;97718.86;103172;1306;24114;-86
2022/04/25 01:01:20;;;;;;;11.10;6.80;;;;;;;8.07;76.31;97715.41;102742;1311;24596;-84
2022/04/25 01:05:08;;;;;;;10.90;7.30;;;;;;;8.06;76.07;97716.59;102476;1314;22613;-83
2022/04/25 01:08:00;;;;;;;12.00;7.40;;;;;;;8.13;76.30;97713.88;102137;1318;25327;-83
2022/04/25 01:11:58;;;;;;;;;;;;;;;;;;;;;
2022/04/25 01:14:58;;;;;;;;;;;;;;;;;;;;;
2022/04/25 01:22:31;;;;;;;;;;;;;;;;;;;;;
2022/04/25 01:30:03;;;;;;;;;;;;;;;;;;;;;
2022/04/25 01:33:44;;;;;;;;;;;;;;;;;;;;;
2022/04/25 01:37:11;;;;;;;;;;;;;;;;;;;;;
2022/04/25 01:40:35;;;;;;;10.30;5.90;;;;;;;7.92;76.46;97711.05;104016;1300;22910;-82
2022/04/25 01:44:04;;;;;;;;;;;;;;;;;;;;;
2022/04/25 01:47:13;;;;;;;14.10;8.50;;;;;;;7.87;76.53;97709.86;103936;1300;25522;-83
2022/04/25 01:50:31;;;;;;;12.70;8.50;;;;;;;7.84;76.55;97709.14;103844;1300;22590;-82
2022/04/25 01:53:37;;;;;;;;;;;;;;;;;;;;;
2022/04/25 01:57:21;;;;;;;;;;;;;;;;;;;;;
2022/04/25 02:01:00;;;;;;;10.50;6.00;;;;;;;7.80;77.05;97711.32;103535;1303;25317;-83
2022/04/25 02:04:45;;;;;;;13.30;7.60;;;;;;;7.74;77.05;97710.88;103390;1303;22755;-84
2022/04/25 02:07:40;;;;;;;;;;;;;;;;;;;;;
2022/04/25 02:11:19;;;;;;;14.10;8.50;;;;;;;7.74;77.10;97712.84;103766;1300;25637;-84
2022/04/25 02:14:54;;;;;;;;;;;;;;;;;;;;;
2022/04/25 02:18:54;;;;;;;12.30;7.50;;;;;;;7.81;76.93;97719.71;103926;1297;22677;-84
2022/04/25 02:22:17;;;;;;;;;;;;;;;;;;;;;
2022/04/25 02:25:40;;;;;;;;;;;;;;;;;;;;;
2022/04/25 02:29:18;;;;;;;13.40;9.10;;;;;;;7.85;76.94;97730.74;104429;1291;22553;-85
2022/04/25 02:32:30;;;;;;;;;;;;;;;;;;;;;
2022/04/25 02:36:03;;;;;;;;;;;;;;;;;;;;;
2022/04/25 02:39:33;;;;;;;;;;;;;;;;;;;;;
2022/04/25 02:43:40;;;;;;;12.80;8.00;;;;;;;7.79;77.58;97737.19;104595;1291;22565;-84
2022/04/25 02:46:50;;;;;;;;;;;;;;;;;;;;;
2022/04/25 02:50:14;;;;;;;;;;;;;;;;;;;;;
2022/04/25 02:53:31;;;;;;;10.70;6.10;;;;;;;7.73;77.55;97739.50;105699;1278;26487;-85
2022/04/25 02:57:02;;;;;;;;;;;;;;;;;;;;;
2022/04/25 02:59:54;;;;;;;;;;;;;;;;;;;;;
2022/04/25 03:03:35;;;;;;;;;;;;;;;;;;;;;
2022/04/25 03:07:22;;;;;;;;;;;;;;;;;;;;;
2022/04/25 03:10:21;;;;;;;;;;;;;;;;;;;;;
2022/04/25 03:13:37;;;;;;;;;;;;;;;;;;;;;
2022/04/25 03:17:03;;;;;;;11.50;7.10;;;;;;;7.71;77.25;97760.19;104035;1300;26656;-87
2022/04/25 03:20:57;;;;;;;;;;;;;;;;;;;;;
2022/04/25 03:24:29;;;;;;;;;;;;;;;;;;;;;
2022/04/25 03:27:41;;;;;;;;;;;;;;;;;;;;;
2022/04/25 03:31:15;;;;;;;14.40;8.60;;;;;;;7.47;77.56;97768.14;103945;1300;22652;-83
2022/04/25 03:34:13;;;;;;;;;;;;;;;;;;;;;
2022/04/25 03:37:56;;;;;;;;;;;;;;;;;;;;;
2022/04/25 03:41:35;;;;;;;;;;;;;;;;;;;;;
2022/04/25 03:48:43;;;;;;;;;;;;;;;;;;;;;
2022/04/25 03:51:59;;;;;;;;;;;;;;;;;;;;;
2022/04/25 03:58:47;;;;;;;;;;;;;;;;;;;;;
2022/04/25 04:02:39;;;;;;;;;;;;;;;;;;;;;
2022/04/25 04:06:11;;;;;;;;;;;;;;;;;;;;;
2022/04/25 04:13:40;;;;;;;18.70;12.00;;;;;;;7.29;77.76;97804.08;103872;1294;25337;-83
2022/04/25 04:17:03;;;;;;;;;;;;;;;;;;;;;
2022/04/25 04:21:03;;;;;;;13.90;7.90;;;;;;;7.27;78.26;97811.70;103830;1303;22561;-87
2022/04/25 04:23:35;;;;;;;14.60;8.30;;;;;;;7.18;78.21;97815.78;102462;1314;24513;-82
2022/04/25 04:27:37;;;;;;;13.70;8.40;;;;;;;7.13;78.12;97821.51;102913;1309;23101;-85
2022/04/25 04:30:47;;;;;;;;;;;;;;;;;;;;;
2022/04/25 04:34:59;;;;;;;15.90;9.30;;;;;;;7.13;78.07;97828.02;103966;1299;22681;-82
2022/04/25 04:38:14;;;;;;;;;;;;;;;;;;;;;
2022/04/25 04:42:16;;;;;;;16.50;9.20;;;;;;;7.12;78.17;97843.20;103333;1306;24288;-83
2022/04/25 04:45:29;;;;;;;;;;;;;;;;;;;;;
2022/04/25 04:49:28;;;;;;;;;;;;;;;;;;;;;
2022/04/25 04:53:12;;;;;;;;;;;;;;;;;;;;;
2022/04/25 04:57:13;;;;;;;17.20;10.50;;;;;;;7.05;78.12;97869.86;102628;1311;22587;-82
2022/04/25 05:01:01;;;;;;;14.90;9.10;;;;;;;7.10;78.25;97870.75;102585;1311;22824;-83
2022/04/25 05:04:31;;;;;;;;;;;;;;;;;;;;;
2022/04/25 05:08:32;;;;;;;14.50;8.80;;;;;;;7.10;78.30;97885.95;101921;1319;23990;-82
2022/04/25 05:12:05;;;;;;;;;;;;;;;;;;;;;
2022/04/25 05:15:31;;;;;;;;;;;;;;;;;;;;;
2022/04/25 05:27:21;;;;;;;13.30;8.00;;;;;;;6.95;78.18;97903.59;103923;1301;22672;-86
2022/04/25 05:30:53;;;;;;;;;;;;;;;;;;;;;
2022/04/25 05:34:35;;;;;;;13.40;7.80;;;;;;;6.83;78.22;97911.45;98615;1315;5447716;-86
2022/04/25 05:38:23;;;;;;;12.10;7.60;;;;;;;6.81;78.39;97915.77;102525;1315;22583;-85
2022/04/25 05:41:47;;;;;;;;;;;;;;;;;;;;;
2022/04/25 05:54:17;;;;;;;14.70;7.00;;;;;;;6.86;78.40;97930.11;105794;1287;22547;-90
2022/04/25 05:57:31;;;;;;;12.50;7.80;;;;;;;6.87;78.40;97937.42;104703;1298;25601;-90
2022/04/25 06:09:43;;;;;;;10.90;6.40;;;;;;;6.91;78.63;97944.56;104227;1300;22711;-90
2022/04/25 06:13:13;;;;;;;;;;;;;;;;;;;;;
2022/04/25 06:17:13;;;;;;;;;;;;;;;;;;;;;
2022/04/25 06:20:33;;;;;;;;;;;;;;;;;;;;;
2022/04/25 06:28:02;;;;;;;;;;;;;;;;;;;;;
2022/04/25 06:32:22;;;;;;;10.80;6.10;;;;;;;7.02;78.51;97967.48;102762;1312;545316;-87
2022/04/25 06:40:03;;;;;;;10.90;6.00;;;;;;;7.00;78.10;97973.22;104299;1292;22573;-87
2022/04/25 06:47:26;;;;;;;;;;;;;;;;;;;;;
2022/04/25 06:50:53;;;;;;;;;;;;;;;;;;;;;
2022/04/25 06:58:32;;;;;;;;;;;;;;;;;;;;;
2022/04/25 07:01:56;;;;;;;;;;;;;;;;;;;;;
2022/04/25 07:05:28;;;;;;;;;;;;;;;;;;;;;
2022/04/25 07:09:12;;;;;;;;;;;;;;;;;;;;;
2022/04/25 07:13:03;;;;;;;;;;;;;;;;;;;;;
2022/04/25 07:17:07;;;;;;;;;;;;;;;;;;;;;
2022/04/25 07:32:37;;;;;;;;;;;;;;;;;;;;;
2022/04/25 07:36:14;;;;;;;;;;;;;;;;;;;;;
2022/04/25 07:56:22;;;;;;;35.40;17.80;;;;;;;7.07;78.80;98045.52;104721;1286;22569;-88
2022/04/25 07:59:57;;;;;;;;;;;;;;;;;;;;;
2022/04/25 08:02:46;;;;;;;56.60;18.20;;;;;;;7.05;78.93;98057.30;105190;1284;24378;-89
2022/04/25 08:06:18;;;;;;;;;;;;;;;;;;;;;
2022/04/25 08:09:26;;;;;;;57.10;18.60;;;;;;;7.13;78.96;98063.96;105758;1277;22591;-89
2022/04/25 08:31:12;;;;;;;;;;;;;;;;;;;;;
2022/04/25 08:34:48;;;;;;;29.60;11.20;;;;;;;7.33;78.99;98089.61;104441;1291;22557;-87
2022/04/25 08:38:27;;;;;;;;;;;;;;;;;;;;;
2022/04/25 08:42:06;;;;;;;108.10;27.00;;;;;;;7.25;78.91;98102.23;103973;1297;24250;-88
2022/04/25 08:46:14;;;;;;;33.50;15.30;;;;;;;7.20;78.60;98106.29;103933;1297;24266;-87
2022/04/25 08:49:09;;;;;;;24.70;12.50;;;;;;;7.19;78.95;98112.39;103779;1297;24270;-88
2022/04/25 08:52:29;;;;;;;;;;;;;;;;;;;;;
2022/04/25 08:56:04;;;;;;;;;;;;;;;;;;;;;
2022/04/25 08:59:45;;;;;;;22.10;10.80;;;;;;;7.42;78.78;98125.77;103163;1306;23187;-86
2022/04/25 09:02:42;;;;;;;14.20;7.20;;;;;;;7.49;78.72;98127.34;103495;1302;24273;-87
2022/04/25 09:06:03;;;;;;;;;;;;;;;;;;;;;
2022/04/25 09:09:49;;;;;;;23.20;16.20;;;;;;;7.56;78.87;98137.96;104382;1292;24230;-88
2022/04/25 09:12:53;;;;;;;22.30;9.40;;;;;;;7.65;78.92;98142.66;104062;1294;25536;-86
2022/04/25 09:16:48;;;;;;;89.30;20.80;;;;;;;7.51;78.52;98141.34;104414;1292;23211;-87
2022/04/25 09:19:45;;;;;;;49.00;13.70;;;;;;;7.59;78.70;98151.74;104861;1287;22667;-88
2022/04/25 09:27:22;;;;;;;53.10;13.20;;;;;;;7.71;78.74;98162.38;103674;1298;22585;-86
2022/04/25 09:31:10;;;;;;;;;;;;;;;;;;;;;
2022/04/25 09:42:31;;;;;;;13.10;6.00;;;;;;;7.71;78.74;98182.53;103149;1306;22934;-90
2022/04/25 09:45:30;;;;;;;;;;;;;;;;;;;;;
2022/04/25 09:48:12;;;;;;;;;;;;;;;;;;;;;
2022/04/25 09:52:11;;;;;;;50.60;19.10;;;;;;;7.71;78.71;98189.88;102897;1312;25251;-87
2022/04/25 09:54:51;;;;;;;27.50;9.50;;;;;;;7.86;78.68;98193.52;102472;1315;22617;-88
2022/04/25 09:57:49;;;;;;;;;;;;;;;;;;;;;
2022/04/25 10:00:53;;;;;;;49.30;15.70;;;;;;;8.18;79.00;98200.31;102168;1316;22578;-88
2022/04/25 10:04:23;;;;;;;;;;;;;;;;;;;;;
2022/04/25 10:07:25;;;;;;;13.10;5.20;;;;;;;8.21;78.64;98202.05;103868;1296;22863;-88
2022/04/25 10:14:08;;;;;;;9.80;4.90;;;;;;;8.36;78.08;98210.95;103960;1297;22937;-88
2022/04/25 10:17:18;;;;;;;9.10;5.20;;;;;;;8.44;78.67;98206.85;104045;1297;22593;-87
2022/04/25 10:20:45;;;;;;;8.90;4.70;;;;;;;8.45;78.44;98212.27;104352;1290;23356;-86
2022/04/25 10:23:57;;;;;;;10.40;6.30;;;;;;;8.48;78.27;98211.38;105169;1282;25478;-86
2022/04/25 10:34:16;;;;;;;;;;;;;;;;;;;;;
2022/04/25 10:37:24;;;;;;;14.20;8.90;;;;;;;8.66;78.16;98230.37;105318;1284;25941;-86
2022/04/25 10:44:55;;;;;;;21.70;10.50;;;;;;;8.81;78.62;98238.55;105071;1284;24245;-86
2022/04/25 10:48:02;;;;;;;18.40;7.10;;;;;;;8.79;78.47;98242.48;104632;1290;22714;-88
2022/04/25 10:52:21;;;;;;;13.80;6.70;;;;;;;8.76;78.20;98242.83;104542;1290;22557;-89
2022/04/25 10:56:21;;;;;;;24.20;11.90;;;;;;;8.90;78.19;98246.58;104448;1291;22986;-87
2022/04/25 10:59:53;;;;;;;13.90;6.50;;;;;;;9.08;78.41;98246.20;104471;1291;25337;-85
2022/04/25 11:03:10;;;;;;;30.50;20.10;;;;;;;9.27;78.38;98255.73;104822;1290;24385;-85
2022/04/25 11:06:34;;;;;;;;;;;;;;;;;;;;;
2022/04/25 11:10:30;;;;;;;;;;;;;;;;;;;;;
2022/04/25 11:18:17;;;;;;;;;;;;;;;;;;;;;
2022/04/25 11:21:48;;;;;;;9.80;5.30;;;;;;;8.58;78.43;98282.96;103264;1303;23996;-88
2022/04/25 11:25:56;;;;;;;9.10;5.20;;;;;;;8.67;78.46;98290.97;102629;1313;547829;-85
2022/04/25 11:29:22;;;;;;;9.10;5.00;;;;;;;8.94;78.34;98289.57;105435;1284;24412;-86
2022/04/25 11:32:50;;;;;;;11.20;7.20;;;;;;;8.97;78.17;98301.64;105111;1287;25277;-86
2022/04/25 11:36:14;;;;;;;82.40;19.70;;;;;;;8.82;77.78;98302.42;105337;1285;25527;-87
2022/04/25 11:42:09;;;;;;;26.50;10.80;;;;;;;8.85;78.75;98318.30;104708;1290;22687;-86
2022/04/25 11:44:52;;;;;;;13.10;7.60;;;;;;;8.89;78.48;98318.73;105002;1290;22732;-86
2022/04/25 11:47:29;;;;;;;15.50;7.60;;;;;;;8.80;78.23;98326.55;104771;1290;22557;-87
2022/04/25 11:50:36;;;;;;;11.80;6.10;;;;;;;8.65;78.16;98330.86;104850;1290;22544;-87
2022/04/25 11:53:46;;;;;;;14.80;7.30;;;;;;;8.63;78.74;98337.05;104891;1290;22606;-87
2022/04/25 11:56:25;;;;;;;15.50;8.10;;;;;;;8.72;78.89;98341.33;104915;1289;23305;-86
2022/04/25 11:59:07;;;;;;;13.10;7.70;;;;;;;8.78;78.63;98346.75;104867;1291;22618;-88
2022/04/25 12:01:49;;;;;;;14.70;9.50;;;;;;;8.70;78.39;98343.83;105012;1290;25390;-86
2022/04/25 12:04:26;;;;;;;30.90;9.70;;;;;;;8.51;78.26;98345.59;104733;1290;24227;-86
2022/04/25 12:07:18;;;;;;;19.70;7.90;;;;;;;8.39;78.40;98351.81;105542;1281;22712;-87
2022/04/25 12:16:47;;;;;;;18.20;9.40;;;;;;;8.43;78.75;98362.02;106002;1274;24288;-88
2022/04/25 12:19:34;;;;;;;21.80;10.30;;;;;;;8.42;78.56;98361.38;106204;1274;25366;-86
2022/04/25 12:22:28;;;;;;;47.50;14.50;;;;;;;8.46;78.80;98361.54;106148;1274;22686;-87
2022/04/25 12:25:52;;;;;;;42.50;13.20;;;;;;;8.54;79.01;98364.36;106047;1275;25293;-86
2022/04/25 12:28:59;;;;;;;;;;;;;;;;;;;;;
2022/04/25 12:32:01;;;;;;;110.00;26.00;;;;;;;8.54;78.42;98368.20;105809;1283;22860;-86
2022/04/25 12:34:44;;;;;;;27.50;15.80;;;;;;;8.48;78.44;98372.76;105616;1283;22966;-85
2022/04/25 12:37:48;;;;;;;25.70;11.90;;;;;;;8.56;78.67;98377.00;105620;1283;24299;-89
2022/04/25 12:40:51;;;;;;;19.50;10.80;;;;;;;8.51;78.29;98376.44;105678;1283;24259;-87
2022/04/25 12:44:38;;;;;;;28.00;11.00;;;;;;;8.41;78.32;98378.98;105642;1282;26671;-88
2022/04/25 12:47:19;;;;;;;17.80;9.30;;;;;;;8.39;78.78;98380.55;105661;1283;22718;-90
2022/04/25 12:50:09;;;;;;;18.40;10.40;;;;;;;8.33;78.93;98383.42;105700;1283;23474;-86
2022/04/25 12:52:53;;;;;;;30.60;11.00;;;;;;;8.37;78.86;98388.46;105674;1283;22721;-89
2022/04/25 12:56:22;;;;;;;;;;;;;;;;;;;;;
2022/04/25 12:59:20;;;;;;;22.80;8.40;;;;;;;8.42;79.04;98395.02;104812;1290;25265;-87
2022/04/25 13:02:58;;;;;;;;;;;;;;;;;;;;;
2022/04/25 13:06:53;;;;;;;21.20;12.30;;;;;;;8.27;78.74;98406.23;105677;1284;22837;-86
2022/04/25 13:09:33;;;;;;;;;;;;;;;;;;;;;
2022/04/25 13:12:18;;;;;;;42.80;16.30;;;;;;;8.12;79.56;98411.04;105570;1283;24329;-87
2022/04/25 13:15:01;;;;;;;17.20;9.10;;;;;;;8.19;79.37;98413.04;105495;1283;25475;-85
2022/04/25 13:17:32;;;;;;;17.70;9.80;;;;;;;8.06;78.83;98414.67;105405;1284;22553;-86
2022/04/25 13:20:44;;;;;;;30.90;10.00;;;;;;;7.90;79.16;98417.02;105718;1283;25385;-86
2022/04/25 13:24:03;;;;;;;;;;;;;;;;;;;;;
2022/04/25 13:27:05;;;;;;;;;;;;;;;;;;;;;
2022/04/25 13:29:54;;;;;;;50.70;13.70;;;;;;;7.78;79.66;98427.14;105452;1283;25336;-86
2022/04/25 13:35:59;;;;;;;31.00;10.90;;;;;;;7.94;79.77;98430.59;106023;1274;22748;-85
2022/04/25 13:38:32;;;;;;;27.30;12.20;;;;;;;7.98;79.73;98431.48;105956;1275;24271;-86
2022/04/25 13:41:19;;;;;;;28.20;10.60;;;;;;;7.93;79.54;98438.11;105923;1277;22563;-86
2022/04/25 13:44:09;;;;;;;16.30;8.80;;;;;;;7.89;79.53;98439.11;105699;1277;25437;-86
2022/04/25 13:47:07;;;;;;;16.80;8.60;;;;;;;7.95;79.64;98440.42;105662;1274;22636;-85
2022/04/25 13:49:53;;;;;;;19.00;11.60;;;;;;;8.02;79.50;98444.23;106157;1274;25389;-86
2022/04/25 13:52:54;;;;;;;;;;;;;;;;;;;;;
2022/04/25 13:55:33;;;;;;;24.50;13.70;;;;;;;8.25;79.61;98446.94;106223;1274;24283;-86
2022/04/25 13:58:28;;;;;;;;;;;;;;;;;;;;;
2022/04/25 14:01:25;;;;;;;19.70;9.60;;;;;;;8.33;79.07;98454.52;105890;1274;23730;-85
2022/04/25 14:04:15;;;;;;;21.20;10.10;;;;;;;8.27;79.22;98458.73;105860;1277;24402;-86
2022/04/25 14:07:38;;;;;;;19.20;11.00;;;;;;;8.24;79.62;98459.46;105890;1276;22603;-85
2022/04/25 14:10:34;;;;;;;31.80;16.40;;;;;;;8.24;79.26;98461.20;105859;1274;25264;-86
2022/04/25 14:13:06;;;;;;;20.20;11.10;;;;;;;8.28;79.25;98460.55;106145;1274;22785;-86
2022/04/25 14:15:52;;;;;;;20.00;11.10;;;;;;;8.39;79.86;98463.58;106120;1274;22557;-86
2022/04/25 14:19:08;;;;;;;;;;;;;;;;;;;;;
2022/04/25 14:21:37;;;;;;;16.80;9.90;;;;;;;8.33;79.66;98469.61;105863;1277;24300;-87
2022/04/25 14:24:15;;;;;;;21.00;12.10;;;;;;;8.28;79.63;98474.09;105922;1277;22549;-86
2022/04/25 14:27:21;;;;;;;17.00;9.00;;;;;;;8.12;79.41;98475.55;105894;1277;22623;-88
2022/04/25 14:29:58;;;;;;;19.40;11.00;;;;;;;7.93;79.38;98480.80;106190;1274;22548;-86
2022/04/25 14:32:46;;;;;;;20.00;11.50;;;;;;;7.81;79.78;98484.45;105963;1274;22790;-88
2022/04/25 14:35:37;;;;;;;21.50;11.80;;;;;;;7.82;80.11;98486.73;105948;1275;23391;-86
2022/04/25 14:38:38;;;;;;;18.90;11.60;;;;;;;7.82;80.06;98486.20;106080;1275;22586;-87
2022/04/25 14:41:36;;;;;;;17.00;10.40;;;;;;;7.75;80.13;98490.44;105982;1275;22582;-87
2022/04/25 14:44:32;;;;;;;14.80;8.60;;;;;;;7.72;80.53;98495.08;105954;1274;24309;-89
2022/04/25 14:47:19;;;;;;;18.40;11.80;;;;;;;7.66;80.12;98498.69;106059;1274;24293;-88
2022/04/25 14:56:29;;;;;;;20.70;10.60;;;;;;;7.48;79.99;98505.17;106244;1274;22570;-87
2022/04/25 14:59:49;;;;;;;;;;;;;;;;;;;;;
2022/04/25 15:02:52;;;;;;;23.30;11.20;;;;;;;7.46;80.08;98509.07;105931;1277;22724;-89
2022/04/25 15:08:46;;;;;;;29.80;15.20;;;;;;;7.44;80.06;98510.41;106148;1274;24266;-88
2022/04/25 15:11:34;;;;;;;29.80;15.00;;;;;;;7.44;79.88;98512.92;106076;1274;25241;-88
2022/04/25 15:14:15;;;;;;;19.80;10.30;;;;;;;7.48;79.92;98514.73;105896;1274;23741;-88
2022/04/25 15:17:12;;;;;;;17.10;8.70;;;;;;;7.56;79.79;98515.80;105865;1274;22557;-91
2022/04/25 15:20:09;;;;;;;;;;;;;;;;;;;;;
2022/04/25 15:22:54;;;;;;;19.30;10.10;;;;;;;7.64;79.79;98522.54;105936;1274;25353;-88
2022/04/25 15:25:49;;;;;;;18.70;8.90;;;;;;;7.73;79.87;98524.95;105924;1277;25398;-88
2022/04/25 15:28:43;;;;;;;16.10;8.20;;;;;;;7.77;79.74;98528.03;106014;1274;25279;-89
2022/04/25 15:32:00;;;;;;;15.10;7.50;;;;;;;7.73;79.63;98533.58;105785;1277;25976;-88
2022/04/25 15:34:43;;;;;;;14.60;7.40;;;;;;;7.71;79.70;98533.95;105910;1277;22841;-88
2022/04/25 15:37:47;;;;;;;;;;;;;;;;;;;;;
2022/04/25 15:43:29;;;;;;;16.50;9.50;;;;;;;7.70;79.66;98541.98;105975;1274;22845;-90
2022/04/25 15:47:01;;;;;;;;;;;;;;;;;;;;;
2022/04/25 15:49:51;;;;;;;16.30;7.80;;;;;;;7.57;79.93;98543.02;106284;1274;25362;-89
2022/04/25 15:57:43;;;;;;;24.80;11.50;;;;;;;7.58;79.97;98546.30;106112;1275;24043;-89
2022/04/25 16:00:45;;;;;;;15.80;8.60;;;;;;;7.68;79.85;98551.45;106061;1277;24267;-90
2022/04/25 16:03:34;;;;;;;17.10;9.00;;;;;;;7.71;79.89;98555.39;105888;1276;25321;-89
2022/04/25 16:06:57;;;;;;;18.50;8.90;;;;;;;7.69;79.91;98556.70;106077;1274;23945;-89
2022/04/25 16:09:42;;;;;;;19.40;9.00;;;;;;;7.68;79.79;98557.31;106099;1274;22544;-93
2022/04/25 16:13:37;;;;;;;16.10;8.80;;;;;;;7.65;79.74;98564.80;105907;1275;22554;-89
2022/04/25 16:16:39;;;;;;;;;;;;;;;;;;;;;
2022/04/25 16:19:26;;;;;;;20.50;10.30;;;;;;;7.54;80.05;98561.98;106559;1274;22959;-87
2022/04/25 16:22:12;;;;;;;21.70;11.30;;;;;;;7.51;80.24;98566.80;106183;1277;24303;-88
2022/04/25 16:25:00;;;;;;;22.70;12.70;;;;;;;7.50;80.02;98568.79;106004;1275;22716;-89
2022/04/25 16:27:48;;;;;;;;;;;;;;;;;;;;;
2022/04/25 16:30:36;;;;;;;18.80;9.60;;;;;;;7.50;80.26;98570.58;106265;1274;22570;-89
2022/04/25 16:33:27;;;;;;;15.90;8.80;;;;;;;7.49;80.35;98571.17;106265;1277;22657;-90
2022/04/25 16:36:12;;;;;;;21.20;10.90;;;;;;;7.45;80.37;98573.23;106806;1274;24230;-89
2022/04/25 16:39:19;;;;;;;22.50;10.20;;;;;;;7.46;80.51;98573.92;106765;1274;22690;-89
2022/04/25 16:42:11;;;;;;;15.10;8.10;;;;;;;7.43;80.29;98578.88;106811;1274;23930;-89
2022/04/25 16:45:00;;;;;;;15.90;8.80;;;;;;;7.40;80.26;98582.77;106915;1274;25939;-90
2022/04/25 16:48:22;;;;;;;;;;;;;;;;;;;;;
2022/04/25 16:51:09;;;;;;;17.50;9.00;;;;;;;7.38;80.38;98593.21;106874;1274;23779;-91
2022/04/25 16:53:38;;;;;;;16.90;8.90;;;;;;;7.35;80.57;98595.17;106720;1274;22560;-90
2022/04/25 16:56:21;;;;;;;;;;;;;;;;;;;;;
2022/04/25 16:59:26;;;;;;;15.60;7.80;;;;;;;7.34;80.53;98601.61;106967;1274;22671;-91
2022/04/25 17:02:00;;;;;;;15.80;7.00;;;;;;;7.32;80.22;98598.88;106762;1274;23389;-90
2022/04/25 17:05:01;;;;;;;18.50;9.10;;;;;;;7.30;80.44;98608.74;107218;1274;25367;-90
2022/04/25 17:07:49;;;;;;;;;;;;;;;;;;;;;
2022/04/25 17:10:44;;;;;;;;;;;;;;;;;;;;;
2022/04/25 17:14:23;;;;;;;;;;;;;;;;;;;;;
2022/04/25 17:17:01;;;;;;;16.80;8.60;;;;;;;7.41;80.36;98621.48;107375;1274;22622;-90
2022/04/25 17:19:53;;;;;;;16.80;9.20;;;;;;;7.42;80.48;98622.88;107513;1274;22628;-89
2022/04/25 17:22:37;;;;;;;19.90;8.80;;;;;;;7.42;80.38;98626.05;107448;1274;22683;-91
2022/04/25 17:25:19;;;;;;;21.30;9.60;;;;;;;7.43;80.50;98624.00;107326;1274;23016;-91
2022/04/25 17:28:08;;;;;;;19.10;9.40;;;;;;;7.45;80.59;98624.05;107408;1274;24162;-90
2022/04/25 17:30:52;;;;;;;16.20;8.30;;;;;;;7.47;80.32;98620.80;107742;1274;25923;-90
